createdAt,value
2023-02-12T00:05:23.211Z,1.30
2023-02-12T00:15:27.617Z,1.13
2023-02-12T00:25:35.089Z,1.37
2023-02-12T00:35:37.113Z,1.40
2023-02-12T00:45:41.431Z,1.30
2023-02-12T00:55:44.329Z,1.20
2023-02-12T01:05:46.545Z,2.03
2023-02-12T01:15:48.652Z,1.40
2023-02-12T01:25:58.995Z,1.20
2023-02-12T01:36:01.109Z,1.30
2023-02-12T01:46:03.593Z,1.60
2023-02-12T01:56:09.827Z,1.50
2023-02-12T02:06:27.889Z,1.57
2023-02-12T02:16:34.582Z,1.07
2023-02-12T02:27:11.499Z,1.30
2023-02-12T02:37:22.581Z,1.07
2023-02-12T02:47:35.545Z,1.00
2023-02-12T02:57:49.401Z,1.40
2023-02-12T03:07:57.750Z,1.23
2023-02-12T03:18:01.935Z,1.70
2023-02-12T03:28:11.507Z,1.43
2023-02-12T03:38:35.378Z,1.00
2023-02-12T03:48:45.136Z,1.37
2023-02-12T03:58:47.339Z,0.87
2023-02-12T04:08:49.625Z,1.07
2023-02-12T04:18:52.396Z,1.30
2023-02-12T04:29:24.364Z,1.57
2023-02-12T04:39:29.626Z,1.10
2023-02-12T04:49:34.763Z,1.33
2023-02-12T04:59:45.872Z,1.60
2023-02-12T05:09:48.197Z,1.13
2023-02-12T05:19:50.339Z,1.83
2023-02-12T05:29:53.140Z,1.20
2023-02-12T05:39:55.134Z,1.70
2023-02-12T05:49:59.699Z,1.80
2023-02-12T06:00:04.621Z,1.53
2023-02-12T06:10:14.183Z,1.20
2023-02-12T06:20:16.353Z,1.30
2023-02-12T06:30:20.853Z,1.53
2023-02-12T06:40:25.436Z,1.30
2023-02-12T06:50:30.194Z,1.50
2023-02-12T07:00:32.277Z,1.60
2023-02-12T07:10:34.391Z,1.40
2023-02-12T07:20:38.826Z,1.30
2023-02-12T07:30:44.848Z,1.27
2023-02-12T07:40:46.857Z,1.30
2023-02-12T07:50:48.948Z,1.97
2023-02-12T08:00:50.994Z,1.23
2023-02-12T08:10:56.381Z,1.47
2023-02-12T08:21:07.290Z,1.80
2023-02-12T08:31:17.024Z,1.63
2023-02-12T08:41:25.252Z,1.47
2023-02-12T08:51:36.015Z,1.93
2023-02-12T09:01:39.648Z,2.40
2023-02-12T09:11:46.033Z,2.90
2023-02-12T09:21:53.981Z,3.67
2023-02-12T09:32:07.261Z,3.20
2023-02-12T09:42:29.785Z,3.60
2023-02-12T09:52:35.396Z,3.07
2023-02-12T10:02:42.774Z,3.70
2023-02-12T10:12:52.666Z,3.90
2023-02-12T10:23:19.105Z,3.97
2023-02-12T10:33:27.576Z,3.00
2023-02-12T10:43:29.752Z,3.53
2023-02-12T10:53:35.162Z,2.80
2023-02-12T11:03:40.522Z,2.90
2023-02-12T11:13:54.329Z,3.73
2023-02-12T11:23:56.570Z,3.73
2023-02-12T11:34:07.436Z,4.60
2023-02-12T11:44:20.047Z,3.83
2023-02-12T11:54:28.226Z,3.83
2023-02-12T12:04:36.803Z,3.97
2023-02-12T12:15:22.738Z,3.83
2023-02-12T12:25:34.953Z,5.33
2023-02-12T12:35:48.479Z,3.83
2023-02-12T12:46:37.293Z,3.63
2023-02-12T12:57:16.921Z,3.77
2023-02-12T13:07:55.763Z,7.97
2023-02-12T13:18:05.670Z,4.70
2023-02-12T13:28:18.724Z,5.07
2023-02-12T13:38:55.398Z,5.03
2023-02-12T13:49:02.552Z,5.80
2023-02-12T13:59:14.190Z,5.23
2023-02-12T14:09:27.265Z,5.03
2023-02-12T14:19:40.212Z,5.57
2023-02-12T14:30:11.981Z,5.70
2023-02-12T14:40:33.768Z,5.50
2023-02-12T14:50:50.478Z,5.80
2023-02-12T15:00:57.040Z,4.80
2023-02-12T15:11:23.986Z,5.60
2023-02-12T15:21:30.220Z,5.93
2023-02-12T15:31:35.531Z,7.60
2023-02-12T15:41:40.538Z,8.30
2023-02-12T15:51:44.928Z,7.63
2023-02-12T16:02:02.484Z,8.20
2023-02-12T16:12:10.334Z,8.23
2023-02-12T16:22:19.628Z,8.57
2023-02-12T16:32:30.823Z,7.20
2023-02-12T16:42:35.291Z,8.37
2023-02-12T16:52:39.659Z,8.83
2023-02-12T17:02:41.844Z,7.20
2023-02-12T17:12:52.111Z,9.20
2023-02-12T17:23:01.075Z,8.47
2023-02-12T17:33:08.353Z,8.77
2023-02-12T17:43:10.614Z,10.80
2023-02-12T17:53:14.868Z,7.87
2023-02-12T18:03:21.735Z,9.03
2023-02-12T18:13:26.311Z,9.83
2023-02-12T18:23:28.366Z,9.10
2023-02-12T18:33:34.965Z,10.50
2023-02-12T18:43:37.401Z,9.63
2023-02-12T18:53:39.412Z,11.00
2023-02-12T19:03:47.186Z,10.07
2023-02-12T19:13:49.435Z,11.43
2023-02-12T19:23:57.657Z,10.70
2023-02-12T19:34:01.883Z,11.53
2023-02-12T19:44:07.591Z,11.50
2023-02-12T19:54:11.557Z,11.70
2023-02-12T20:04:22.237Z,11.33
2023-02-12T20:14:24.435Z,11.53
2023-02-12T20:24:29.019Z,13.17
2023-02-12T20:34:36.695Z,12.37
2023-02-12T20:44:44.813Z,10.77
2023-02-12T20:54:49.463Z,11.57
2023-02-12T21:04:56.230Z,12.87
2023-02-12T21:14:58.321Z,11.90
2023-02-12T21:25:02.841Z,13.00
2023-02-12T21:35:07.642Z,12.97
2023-02-12T21:45:09.903Z,21.67
2023-02-12T21:55:17.080Z,14.47
2023-02-12T22:05:23.985Z,14.53
2023-02-12T22:15:28.384Z,14.73
2023-02-12T22:25:31.298Z,15.97
2023-02-12T22:35:33.433Z,18.37
2023-02-12T22:45:35.650Z,17.47
2023-02-12T22:55:38.770Z,17.43
2023-02-12T23:05:41.346Z,16.27
2023-02-12T23:15:43.436Z,14.37
2023-02-12T23:25:45.763Z,14.80
2023-02-12T23:35:48.766Z,16.20
2023-02-12T23:45:51.064Z,16.47
2023-02-12T23:55:57.623Z,15.70
